PWSweather.com
Personal Weather Stations
Station Observations
WAIROAHB
Wairoa, Northern Hawkes Bay -NZ 4108

WairoaNorthern Hawkes Bay -NZ 4108

Lat: -39.04516934, Lon: 177.4263989

Elevation: 156

Station Type: WS3083

http://wairoa.net/weather/index.htm

High Low Average
Temperature 66.9°F19.4°C 61.0°F16.1°C 62.7°F17.1°C
Dew Point 64.5°F18.1°C 60.1°F15.6°C 61.4°F16.3°C
Winds 15.2 mph 24.5 kmh Calm Calm 3.0 mph ENE4.8 kmh ENE
Wind Gusts 19.0 mph30.6 kmh -- 6.0 mph9.7 kmh
Humidity 98% 87% 95%
Pressure 30.02 in1016.6 mb 29.87 in1011.5 mb -
Precipitation 0.47 in11.9 mm - -
Hour Temp Dew Point Humidity Winds Wind Gusts Pressure Precip Precip Rate Daily Precip Total
12:00 AM 63.1°F17.3°C 62.3°F16.8°C 97% 3.1 mph N5.0 kmh N 5.4 mph8.7 kmh 29.95 in1014.2 mb 0.00 in0.0 mm 0.00 in0.0 mm 0.00 in0.0 mm
12:10 AM 63.1°F17.3°C 62.3°F16.8°C 97% 4.5 mph NNE7.2 kmh NNE 6.9 mph11.1 kmh 29.94 in1013.9 mb 0.00 in0.0 mm 0.00 in0.0 mm 0.00 in0.0 mm
12:20 AM 63.0°F17.2°C 62.1°F16.7°C 97% 3.1 mph NNE5.0 kmh NNE 6.9 mph11.1 kmh 29.93 in1013.5 mb 0.00 in0.0 mm 0.00 in0.0 mm 0.00 in0.0 mm
12:30 AM 63.0°F17.2°C 62.1°F16.7°C 97% 3.1 mph N5.0 kmh N 6.9 mph11.1 kmh 29.93 in1013.5 mb 0.00 in0.0 mm 0.00 in0.0 mm 0.00 in0.0 mm
12:40 AM 62.8°F17.1°C 61.9°F16.6°C 97% 2.2 mph N3.5 kmh N 5.4 mph8.7 kmh 29.94 in1013.9 mb 0.00 in0.0 mm 0.00 in0.0 mm 0.00 in0.0 mm
12:50 AM 62.8°F17.1°C 61.9°F16.6°C 97% Calm Calm 3.8 mph6.1 kmh 29.94 in1013.9 mb 0.00 in0.0 mm 0.00 in0.0 mm 0.00 in0.0 mm
01:00 AM 62.6°F17.0°C 61.8°F16.6°C 97% 0.7 mph N1.1 kmh N 4.5 mph7.2 kmh 29.94 in1013.9 mb 0.00 in0.0 mm 0.00 in0.0 mm 0.00 in0.0 mm
01:10 AM 62.4°F16.9°C 61.9°F16.6°C 98% Calm Calm 3.1 mph5.0 kmh 29.93 in1013.5 mb 0.00 in0.0 mm 0.00 in0.0 mm 0.00 in0.0 mm
01:20 AM 62.4°F16.9°C 61.9°F16.6°C 98% 2.2 mph NNE3.5 kmh NNE 3.8 mph6.1 kmh 29.93 in1013.5 mb 0.00 in0.0 mm 0.00 in0.0 mm 0.00 in0.0 mm
01:30 AM 62.2°F16.8°C 61.7°F16.5°C 98% 2.2 mph N3.5 kmh N 3.8 mph6.1 kmh 29.93 in1013.5 mb 0.00 in0.0 mm 0.00 in0.0 mm 0.00 in0.0 mm
01:40 AM 62.2°F16.8°C 61.7°F16.5°C 98% Calm Calm 3.1 mph5.0 kmh 29.93 in1013.5 mb 0.00 in0.0 mm 0.00 in0.0 mm 0.00 in0.0 mm
01:50 AM 62.1°F16.7°C 61.5°F16.4°C 98% Calm Calm -- 29.92 in1013.2 mb 0.00 in0.0 mm 0.00 in0.0 mm 0.00 in0.0 mm
02:00 AM 62.1°F16.7°C 61.5°F16.4°C 98% Calm Calm -- 29.93 in1013.5 mb 0.00 in0.0 mm 0.00 in0.0 mm 0.00 in0.0 mm
02:10 AM 62.1°F16.7°C 61.5°F16.4°C 98% Calm Calm 3.1 mph5.0 kmh 29.93 in1013.5 mb 0.00 in0.0 mm 0.00 in0.0 mm 0.00 in0.0 mm
02:20 AM 61.9°F16.6°C 61.3°F16.3°C 98% Calm Calm -- 29.94 in1013.9 mb 0.01 in0.3 mm 0.06 in1.5 mm 0.01 in0.3 mm
02:30 AM 61.9°F16.6°C 61.3°F16.3°C 98% Calm Calm -- 29.93 in1013.5 mb 0.02 in0.5 mm 0.06 in1.5 mm 0.02 in0.5 mm
02:40 AM 61.7°F16.5°C 61.1°F16.2°C 98% Calm Calm 3.1 mph5.0 kmh 29.94 in1013.9 mb 0.04 in1.0 mm 0.12 in3.0 mm 0.04 in1.0 mm
03:00 AM 61.5°F16.4°C 61.0°F16.1°C 98% Calm Calm 1.6 mph2.6 kmh 29.93 in1013.5 mb 0.06 in1.5 mm 0.03 in0.8 mm 0.06 in1.5 mm
03:10 AM 61.5°F16.4°C 61.0°F16.1°C 98% Calm Calm -- 29.93 in1013.5 mb 0.07 in1.8 mm 0.06 in1.5 mm 0.07 in1.8 mm
03:20 AM 61.5°F16.4°C 61.0°F16.1°C 98% Calm Calm -- 29.94 in1013.9 mb 0.07 in1.8 mm 0.00 in0.0 mm 0.08 in2.0 mm
03:30 AM 61.5°F16.4°C 61.0°F16.1°C 98% Calm Calm -- 29.95 in1014.2 mb 0.07 in1.8 mm 0.00 in0.0 mm 0.09 in2.3 mm
03:40 AM 61.3°F16.3°C 60.8°F16.0°C 98% Calm Calm -- 29.95 in1014.2 mb 0.06 in1.5 mm 0.00 in0.0 mm 0.09 in2.3 mm
03:50 AM 61.2°F16.2°C 60.6°F15.9°C 98% Calm Calm 2.2 mph3.5 kmh 29.95 in1014.2 mb 0.07 in1.8 mm 0.06 in1.5 mm 0.12 in3.0 mm
04:00 AM 61.2°F16.2°C 60.6°F15.9°C 98% Calm Calm -- 29.96 in1014.6 mb 0.06 in1.5 mm 0.00 in0.0 mm 0.12 in3.0 mm
04:10 AM 61.0°F16.1°C 60.4°F15.8°C 98% Calm Calm -- 29.96 in1014.6 mb 0.06 in1.5 mm 0.00 in0.0 mm 0.13 in3.3 mm
04:20 AM 61.0°F16.1°C 60.4°F15.8°C 98% Calm Calm -- 29.96 in1014.6 mb 0.05 in1.3 mm 0.00 in0.0 mm 0.13 in3.3 mm
04:30 AM 61.0°F16.1°C 60.4°F15.8°C 98% Calm Calm -- 29.97 in1014.9 mb 0.05 in1.3 mm 0.00 in0.0 mm 0.14 in3.6 mm
04:40 AM 61.0°F16.1°C 60.4°F15.8°C 98% Calm Calm -- 29.97 in1014.9 mb 0.04 in1.0 mm 0.00 in0.0 mm 0.14 in3.6 mm
04:50 AM 61.2°F16.2°C 60.6°F15.9°C 98% Calm Calm -- 29.97 in1014.9 mb 0.04 in1.0 mm 0.00 in0.0 mm 0.15 in3.8 mm
05:00 AM 61.0°F16.1°C 60.4°F15.8°C 98% Calm Calm -- 29.96 in1014.6 mb 0.04 in1.0 mm 0.00 in0.0 mm 0.15 in3.8 mm
05:10 AM 61.0°F16.1°C 60.4°F15.8°C 98% Calm Calm -- 29.96 in1014.6 mb 0.04 in1.0 mm 0.00 in0.0 mm 0.17 in4.3 mm
05:20 AM 61.2°F16.2°C 60.6°F15.9°C 98% Calm Calm -- 29.96 in1014.6 mb 0.04 in1.0 mm 0.00 in0.0 mm 0.17 in4.3 mm
05:30 AM 61.5°F16.4°C 61.0°F16.1°C 98% Calm Calm 0.7 mph1.1 kmh 29.97 in1014.9 mb 0.04 in1.0 mm 0.00 in0.0 mm 0.18 in4.6 mm
05:40 AM 61.5°F16.4°C 61.0°F16.1°C 98% Calm Calm -- 29.98 in1015.2 mb 0.04 in1.0 mm 0.00 in0.0 mm 0.18 in4.6 mm
05:50 AM 61.9°F16.6°C 61.3°F16.3°C 98% 0.7 mph ENE1.1 kmh ENE 2.2 mph3.5 kmh 29.98 in1015.2 mb 0.04 in1.0 mm 0.00 in0.0 mm 0.19 in4.8 mm
06:00 AM 61.7°F16.5°C 61.1°F16.2°C 98% 3.1 mph E5.0 kmh E 4.5 mph7.2 kmh 29.98 in1015.2 mb 0.04 in1.0 mm 0.00 in0.0 mm 0.19 in4.8 mm
06:10 AM 61.7°F16.5°C 61.1°F16.2°C 98% 2.2 mph ESE3.5 kmh ESE 6.0 mph9.7 kmh 29.98 in1015.2 mb 0.04 in1.0 mm 0.00 in0.0 mm 0.20 in5.1 mm
06:20 AM 61.7°F16.5°C 61.1°F16.2°C 98% 3.1 mph E5.0 kmh E 6.0 mph9.7 kmh 29.98 in1015.2 mb 0.05 in1.3 mm 0.06 in1.5 mm 0.21 in5.3 mm
06:30 AM 61.7°F16.5°C 61.1°F16.2°C 98% 3.1 mph E5.0 kmh E 7.6 mph12.2 kmh 29.99 in1015.6 mb 0.05 in1.3 mm 0.00 in0.0 mm 0.22 in5.6 mm
06:40 AM 61.7°F16.5°C 61.1°F16.2°C 98% 5.4 mph E8.7 kmh E 11.4 mph18.3 kmh 29.99 in1015.6 mb 0.05 in1.3 mm 0.00 in0.0 mm 0.24 in6.1 mm
06:50 AM 61.7°F16.5°C 61.1°F16.2°C 98% 6.9 mph ESE11.1 kmh ESE 9.8 mph15.8 kmh 29.99 in1015.6 mb 0.05 in1.3 mm 0.00 in0.0 mm 0.24 in6.1 mm
07:00 AM 61.5°F16.4°C 61.0°F16.1°C 98% 7.6 mph E12.2 kmh E 14.5 mph23.3 kmh 30.00 in1015.9 mb 0.06 in1.5 mm 0.01 in0.3 mm 0.25 in6.4 mm
07:10 AM 61.7°F16.5°C 61.1°F16.2°C 98% 3.8 mph ESE6.1 kmh ESE 9.8 mph15.8 kmh 29.99 in1015.6 mb 0.05 in1.3 mm 0.00 in0.0 mm 0.25 in6.4 mm
07:20 AM 62.1°F16.7°C 61.5°F16.4°C 98% 9.2 mph E14.8 kmh E 12.1 mph19.5 kmh 29.99 in1015.6 mb 0.05 in1.3 mm 0.00 in0.0 mm 0.26 in6.6 mm
07:30 AM 62.2°F16.8°C 61.7°F16.5°C 98% 8.3 mph E13.4 kmh E 15.9 mph25.6 kmh 30.00 in1015.9 mb 0.04 in1.0 mm 0.00 in0.0 mm 0.26 in6.6 mm
07:40 AM 62.6°F17.0°C 61.2°F16.2°C 95% 7.6 mph E12.2 kmh E 15.9 mph25.6 kmh 30.00 in1015.9 mb 0.02 in0.5 mm 0.00 in0.0 mm 0.26 in6.6 mm
07:50 AM 62.8°F17.1°C 60.4°F15.8°C 92% 4.5 mph E7.2 kmh E 19.0 mph30.6 kmh 30.01 in1016.3 mb 0.02 in0.5 mm 0.00 in0.0 mm 0.26 in6.6 mm
08:00 AM 62.8°F17.1°C 60.4°F15.8°C 92% 4.5 mph E7.2 kmh E 14.5 mph23.3 kmh 30.00 in1015.9 mb 0.01 in0.3 mm 0.00 in0.0 mm 0.26 in6.6 mm
08:10 AM 62.8°F17.1°C 60.4°F15.8°C 92% 5.4 mph E8.7 kmh E 13.6 mph21.9 kmh 30.01 in1016.3 mb 0.01 in0.3 mm 0.00 in0.0 mm 0.26 in6.6 mm
08:20 AM 62.8°F17.1°C 60.4°F15.8°C 92% 15.2 mph ESE24.5 kmh ESE 19.0 mph30.6 kmh 30.01 in1016.3 mb 0.01 in0.3 mm 0.00 in0.0 mm 0.27 in6.9 mm
08:30 AM 62.8°F17.1°C 60.1°F15.6°C 91% 12.1 mph E19.5 kmh E 15.2 mph24.5 kmh 30.00 in1015.9 mb 0.01 in0.3 mm 0.00 in0.0 mm 0.27 in6.9 mm
08:40 AM 62.8°F17.1°C 60.1°F15.6°C 91% 7.6 mph ESE12.2 kmh ESE 14.5 mph23.3 kmh 30.00 in1015.9 mb 0.02 in0.5 mm 0.06 in1.5 mm 0.28 in7.1 mm
08:50 AM 62.8°F17.1°C 60.1°F15.6°C 91% 8.3 mph ESE13.4 kmh ESE 15.9 mph25.6 kmh 30.00 in1015.9 mb 0.02 in0.5 mm 0.00 in0.0 mm 0.28 in7.1 mm
09:00 AM 63.1°F17.3°C 60.2°F15.7°C 90% 7.6 mph E12.2 kmh E 10.7 mph17.2 kmh 30.01 in1016.3 mb 0.02 in0.5 mm 0.00 in0.0 mm 0.28 in7.1 mm
09:10 AM 63.1°F17.3°C 60.5°F15.8°C 91% 3.8 mph E6.1 kmh E 10.7 mph17.2 kmh 30.01 in1016.3 mb 0.02 in0.5 mm 0.00 in0.0 mm 0.28 in7.1 mm
09:20 AM 63.1°F17.3°C 60.5°F15.8°C 91% 9.2 mph ESE14.8 kmh ESE 11.4 mph18.3 kmh 30.01 in1016.3 mb 0.01 in0.3 mm 0.00 in0.0 mm 0.28 in7.1 mm
09:30 AM 63.1°F17.3°C 60.5°F15.8°C 91% 5.4 mph E8.7 kmh E 10.7 mph17.2 kmh 30.01 in1016.3 mb 0.01 in0.3 mm 0.00 in0.0 mm 0.28 in7.1 mm
09:40 AM 63.1°F17.3°C 60.5°F15.8°C 91% 4.5 mph E7.2 kmh E 11.4 mph18.3 kmh 30.01 in1016.3 mb 0.01 in0.3 mm 0.00 in0.0 mm 0.30 in7.6 mm
09:50 AM 63.5°F17.5°C 61.2°F16.2°C 92% 4.5 mph ENE7.2 kmh ENE 9.2 mph14.8 kmh 30.01 in1016.3 mb 0.01 in0.3 mm 0.00 in0.0 mm 0.30 in7.6 mm
10:00 AM 63.5°F17.5°C 60.8°F16.0°C 91% 6.0 mph ENE9.7 kmh ENE 9.2 mph14.8 kmh 30.01 in1016.3 mb 0.01 in0.3 mm 0.00 in0.0 mm 0.30 in7.6 mm
10:10 AM 64.0°F17.8°C 61.7°F16.5°C 92% 5.4 mph ESE8.7 kmh ESE 8.3 mph13.4 kmh 30.01 in1016.3 mb 0.01 in0.3 mm 0.00 in0.0 mm 0.30 in7.6 mm
10:20 AM 64.0°F17.8°C 61.4°F16.3°C 91% 3.8 mph E6.1 kmh E 13.0 mph20.9 kmh 30.01 in1016.3 mb 0.01 in0.3 mm 0.00 in0.0 mm 0.30 in7.6 mm
10:30 AM 64.4°F18.0°C 61.4°F16.3°C 90% 6.9 mph ENE11.1 kmh ENE 11.4 mph18.3 kmh 30.01 in1016.3 mb 0.01 in0.3 mm 0.00 in0.0 mm 0.30 in7.6 mm
10:40 AM 64.9°F18.3°C 61.3°F16.3°C 88% 9.8 mph E15.8 kmh E 13.6 mph21.9 kmh 30.01 in1016.3 mb 0.00 in0.0 mm 0.00 in0.0 mm 0.30 in7.6 mm
10:50 AM 65.3°F18.5°C 61.4°F16.3°C 87% 5.4 mph E8.7 kmh E 9.2 mph14.8 kmh 30.01 in1016.3 mb 0.00 in0.0 mm 0.00 in0.0 mm 0.30 in7.6 mm
11:00 AM 65.1°F18.4°C 61.2°F16.2°C 87% 5.4 mph E8.7 kmh E 9.8 mph15.8 kmh 30.00 in1015.9 mb 0.00 in0.0 mm 0.00 in0.0 mm 0.30 in7.6 mm
11:10 AM 64.6°F18.1°C 60.6°F15.9°C 87% 6.0 mph ENE9.7 kmh ENE 9.2 mph14.8 kmh 30.01 in1016.3 mb 0.00 in0.0 mm 0.00 in0.0 mm 0.30 in7.6 mm
11:20 AM 64.4°F18.0°C 60.8°F16.0°C 88% 3.8 mph ENE6.1 kmh ENE 9.2 mph14.8 kmh 30.01 in1016.3 mb 0.00 in0.0 mm 0.00 in0.0 mm 0.30 in7.6 mm
11:30 AM 64.0°F17.8°C 60.4°F15.8°C 88% 4.5 mph E7.2 kmh E 9.8 mph15.8 kmh 30.01 in1016.3 mb 0.00 in0.0 mm 0.00 in0.0 mm 0.30 in7.6 mm
11:40 AM 64.2°F17.9°C 60.6°F15.9°C 88% 3.8 mph E6.1 kmh E 9.8 mph15.8 kmh 30.01 in1016.3 mb 0.00 in0.0 mm 0.00 in0.0 mm 0.30 in7.6 mm
11:50 AM 64.6°F18.1°C 61.0°F16.1°C 88% 2.2 mph ESE3.5 kmh ESE 6.0 mph9.7 kmh 30.01 in1016.3 mb 0.00 in0.0 mm 0.00 in0.0 mm 0.30 in7.6 mm
12:00 PM 64.9°F18.3°C 61.0°F16.1°C 87% 3.8 mph E6.1 kmh E 6.9 mph11.1 kmh 30.02 in1016.6 mb 0.00 in0.0 mm 0.00 in0.0 mm 0.30 in7.6 mm
12:10 PM 64.4°F18.0°C 60.8°F16.0°C 88% 3.1 mph E5.0 kmh E 7.6 mph12.2 kmh 30.02 in1016.6 mb 0.00 in0.0 mm 0.00 in0.0 mm 0.30 in7.6 mm
12:20 PM 64.2°F17.9°C 61.2°F16.2°C 90% 4.5 mph ESE7.2 kmh ESE 7.6 mph12.2 kmh 30.02 in1016.6 mb 0.00 in0.0 mm 0.00 in0.0 mm 0.30 in7.6 mm
12:30 PM 64.2°F17.9°C 61.9°F16.6°C 92% 3.1 mph E5.0 kmh E 13.0 mph20.9 kmh 30.02 in1016.6 mb 0.00 in0.0 mm 0.00 in0.0 mm 0.30 in7.6 mm
12:40 PM 64.6°F18.1°C 62.5°F16.9°C 93% 3.1 mph ESE5.0 kmh ESE 8.3 mph13.4 kmh 30.01 in1016.3 mb 0.00 in0.0 mm 0.00 in0.0 mm 0.30 in7.6 mm
12:50 PM 64.9°F18.3°C 62.3°F16.8°C 91% 2.2 mph E3.5 kmh E 6.9 mph11.1 kmh 30.01 in1016.3 mb 0.00 in0.0 mm 0.00 in0.0 mm 0.30 in7.6 mm
01:00 PM 65.5°F18.6°C 62.8°F17.1°C 91% 3.1 mph ESE5.0 kmh ESE 6.0 mph9.7 kmh 30.02 in1016.6 mb 0.00 in0.0 mm 0.00 in0.0 mm 0.30 in7.6 mm
01:10 PM 64.9°F18.3°C 62.3°F16.8°C 91% 5.4 mph ESE8.7 kmh ESE 9.2 mph14.8 kmh 30.01 in1016.3 mb 0.00 in0.0 mm 0.00 in0.0 mm 0.30 in7.6 mm
01:20 PM 64.9°F18.3°C 62.6°F17.0°C 92% 3.8 mph ESE6.1 kmh ESE 8.3 mph13.4 kmh 30.01 in1016.3 mb 0.00 in0.0 mm 0.00 in0.0 mm 0.30 in7.6 mm
01:30 PM 64.6°F18.1°C 62.8°F17.1°C 94% 3.1 mph ESE5.0 kmh ESE 9.2 mph14.8 kmh 30.00 in1015.9 mb 0.00 in0.0 mm 0.00 in0.0 mm 0.30 in7.6 mm
01:40 PM 65.3°F18.5°C 63.9°F17.7°C 95% Calm Calm 4.5 mph7.2 kmh 30.00 in1015.9 mb 0.00 in0.0 mm 0.00 in0.0 mm 0.30 in7.6 mm
01:50 PM 65.7°F18.7°C 63.9°F17.7°C 94% Calm Calm 4.5 mph7.2 kmh 30.00 in1015.9 mb 0.00 in0.0 mm 0.00 in0.0 mm 0.30 in7.6 mm
02:00 PM 65.7°F18.7°C 63.6°F17.6°C 93% 3.8 mph ESE6.1 kmh ESE 5.4 mph8.7 kmh 30.00 in1015.9 mb 0.00 in0.0 mm 0.00 in0.0 mm 0.30 in7.6 mm
02:10 PM 65.8°F18.8°C 64.1°F17.8°C 94% Calm Calm 4.5 mph7.2 kmh 30.00 in1015.9 mb 0.00 in0.0 mm 0.00 in0.0 mm 0.30 in7.6 mm
02:20 PM 66.4°F19.1°C 64.3°F17.9°C 93% Calm Calm 3.1 mph5.0 kmh 30.00 in1015.9 mb 0.00 in0.0 mm 0.00 in0.0 mm 0.30 in7.6 mm
02:30 PM 66.9°F19.4°C 64.5°F18.1°C 92% Calm Calm -- 29.99 in1015.6 mb 0.01 in0.3 mm 0.06 in1.5 mm 0.31 in7.9 mm
02:40 PM 65.8°F18.8°C 63.2°F17.3°C 91% 5.4 mph SE8.7 kmh SE 10.7 mph17.2 kmh 29.98 in1015.2 mb 0.01 in0.3 mm 0.00 in0.0 mm 0.31 in7.9 mm
02:50 PM 64.6°F18.1°C 62.8°F17.1°C 94% 4.5 mph E7.2 kmh E 10.7 mph17.2 kmh 29.98 in1015.2 mb 0.01 in0.3 mm 0.00 in0.0 mm 0.31 in7.9 mm
03:00 PM 64.9°F18.3°C 63.5°F17.5°C 95% 2.2 mph ESE3.5 kmh ESE 6.0 mph9.7 kmh 29.99 in1015.6 mb 0.01 in0.3 mm 0.00 in0.0 mm 0.31 in7.9 mm
03:10 PM 64.6°F18.1°C 63.1°F17.3°C 95% 4.5 mph ESE7.2 kmh ESE 9.2 mph14.8 kmh 29.98 in1015.2 mb 0.01 in0.3 mm 0.00 in0.0 mm 0.31 in7.9 mm
03:20 PM 63.9°F17.7°C 62.4°F16.9°C 95% 5.4 mph ESE8.7 kmh ESE 13.6 mph21.9 kmh 29.97 in1014.9 mb 0.01 in0.3 mm 0.00 in0.0 mm 0.31 in7.9 mm
03:30 PM 63.7°F17.6°C 62.2°F16.8°C 95% 7.6 mph ESE12.2 kmh ESE 10.7 mph17.2 kmh 29.97 in1014.9 mb 0.00 in0.0 mm 0.00 in0.0 mm 0.31 in7.9 mm
03:40 PM 64.0°F17.8°C 62.3°F16.8°C 94% 9.2 mph E14.8 kmh E 13.6 mph21.9 kmh 29.97 in1014.9 mb 0.00 in0.0 mm 0.00 in0.0 mm 0.31 in7.9 mm
03:50 PM 63.7°F17.6°C 61.3°F16.3°C 92% 5.4 mph E8.7 kmh E 13.6 mph21.9 kmh 29.97 in1014.9 mb 0.00 in0.0 mm 0.00 in0.0 mm 0.31 in7.9 mm
04:00 PM 63.5°F17.5°C 61.5°F16.4°C 93% 9.8 mph E15.8 kmh E 13.0 mph20.9 kmh 29.96 in1014.6 mb 0.00 in0.0 mm 0.00 in0.0 mm 0.31 in7.9 mm
04:10 PM 63.0°F17.2°C 61.2°F16.2°C 94% 3.1 mph SE5.0 kmh SE 12.1 mph19.5 kmh 29.96 in1014.6 mb 0.00 in0.0 mm 0.00 in0.0 mm 0.31 in7.9 mm
04:20 PM 62.8°F17.1°C 61.3°F16.3°C 95% 5.4 mph ESE8.7 kmh ESE 11.4 mph18.3 kmh 29.96 in1014.6 mb 0.00 in0.0 mm 0.00 in0.0 mm 0.31 in7.9 mm
04:30 PM 62.6°F17.0°C 61.5°F16.4°C 96% 3.8 mph SE6.1 kmh SE 9.2 mph14.8 kmh 29.95 in1014.2 mb 0.00 in0.0 mm 0.00 in0.0 mm 0.31 in7.9 mm
04:40 PM 62.8°F17.1°C 61.9°F16.6°C 97% 0.7 mph ESE1.1 kmh ESE 5.4 mph8.7 kmh 29.95 in1014.2 mb 0.00 in0.0 mm 0.00 in0.0 mm 0.31 in7.9 mm
04:50 PM 62.8°F17.1°C 61.9°F16.6°C 97% 3.8 mph ESE6.1 kmh ESE 7.6 mph12.2 kmh 29.95 in1014.2 mb 0.00 in0.0 mm 0.00 in0.0 mm 0.31 in7.9 mm
05:00 PM 62.8°F17.1°C 61.9°F16.6°C 97% 2.2 mph SE3.5 kmh SE 6.9 mph11.1 kmh 29.94 in1013.9 mb 0.01 in0.3 mm 0.01 in0.3 mm 0.32 in8.1 mm
05:10 PM 62.8°F17.1°C 61.9°F16.6°C 97% 3.8 mph SSW6.1 kmh SSW 5.4 mph8.7 kmh 29.94 in1013.9 mb 0.02 in0.5 mm 0.06 in1.5 mm 0.33 in8.4 mm
05:20 PM 62.6°F17.0°C 61.8°F16.6°C 97% 4.5 mph WSW7.2 kmh WSW 8.3 mph13.4 kmh 29.93 in1013.5 mb 0.02 in0.5 mm 0.00 in0.0 mm 0.33 in8.4 mm
05:30 PM 62.6°F17.0°C 61.8°F16.6°C 97% 3.8 mph WSW6.1 kmh WSW 7.6 mph12.2 kmh 29.93 in1013.5 mb 0.02 in0.5 mm 0.00 in0.0 mm 0.33 in8.4 mm
05:40 PM 62.6°F17.0°C 61.8°F16.6°C 97% 3.1 mph W5.0 kmh W 6.9 mph11.1 kmh 29.93 in1013.5 mb 0.02 in0.5 mm 0.00 in0.0 mm 0.33 in8.4 mm
05:50 PM 62.6°F17.0°C 61.8°F16.6°C 97% 1.6 mph WSW2.6 kmh WSW 5.4 mph8.7 kmh 29.92 in1013.2 mb 0.02 in0.5 mm 0.00 in0.0 mm 0.34 in8.6 mm
06:00 PM 62.6°F17.0°C 61.8°F16.6°C 97% 3.8 mph SW6.1 kmh SW 5.4 mph8.7 kmh 29.92 in1013.2 mb 0.02 in0.5 mm 0.00 in0.0 mm 0.34 in8.6 mm
06:10 PM 62.6°F17.0°C 61.8°F16.6°C 97% 3.1 mph SW5.0 kmh SW 4.5 mph7.2 kmh 29.91 in1012.9 mb 0.02 in0.5 mm 0.00 in0.0 mm 0.35 in8.9 mm
06:20 PM 62.4°F16.9°C 61.9°F16.6°C 98% Calm Calm 3.8 mph6.1 kmh 29.91 in1012.9 mb 0.02 in0.5 mm 0.00 in0.0 mm 0.35 in8.9 mm
06:30 PM 62.6°F17.0°C 61.8°F16.6°C 97% Calm Calm 1.6 mph2.6 kmh 29.91 in1012.9 mb 0.02 in0.5 mm 0.00 in0.0 mm 0.35 in8.9 mm
06:40 PM 62.6°F17.0°C 61.8°F16.6°C 97% Calm Calm 2.2 mph3.5 kmh 29.91 in1012.9 mb 0.02 in0.5 mm 0.00 in0.0 mm 0.35 in8.9 mm
06:50 PM 62.4°F16.9°C 61.9°F16.6°C 98% 2.2 mph NNW3.5 kmh NNW 5.4 mph8.7 kmh 29.91 in1012.9 mb 0.01 in0.3 mm 0.00 in0.0 mm 0.35 in8.9 mm
07:00 PM 62.4°F16.9°C 61.9°F16.6°C 98% 2.2 mph N3.5 kmh N 6.0 mph9.7 kmh 29.91 in1012.9 mb 0.01 in0.3 mm 0.00 in0.0 mm 0.35 in8.9 mm
07:10 PM 62.2°F16.8°C 61.7°F16.5°C 98% 3.8 mph N6.1 kmh N 6.9 mph11.1 kmh 29.91 in1012.9 mb 0.01 in0.3 mm 0.00 in0.0 mm 0.37 in9.4 mm
07:20 PM 62.1°F16.7°C 61.5°F16.4°C 98% 0.7 mph N1.1 kmh N 7.6 mph12.2 kmh 29.91 in1012.9 mb 0.01 in0.3 mm 0.00 in0.0 mm 0.37 in9.4 mm
07:30 PM 62.1°F16.7°C 61.5°F16.4°C 98% 3.8 mph N6.1 kmh N 5.4 mph8.7 kmh 29.92 in1013.2 mb 0.02 in0.5 mm 0.06 in1.5 mm 0.38 in9.7 mm
07:40 PM 61.9°F16.6°C 61.3°F16.3°C 98% 3.1 mph N5.0 kmh N 6.9 mph11.1 kmh 29.92 in1013.2 mb 0.02 in0.5 mm 0.00 in0.0 mm 0.38 in9.7 mm
07:50 PM 61.7°F16.5°C 61.1°F16.2°C 98% Calm Calm 6.0 mph9.7 kmh 29.93 in1013.5 mb 0.02 in0.5 mm 0.00 in0.0 mm 0.38 in9.7 mm
08:00 PM 61.7°F16.5°C 61.1°F16.2°C 98% Calm Calm -- 29.93 in1013.5 mb 0.04 in1.0 mm 0.02 in0.5 mm 0.39 in9.9 mm
08:10 PM 61.5°F16.4°C 61.0°F16.1°C 98% Calm Calm -- 29.93 in1013.5 mb 0.04 in1.0 mm 0.00 in0.0 mm 0.40 in10.2 mm
08:20 PM 61.5°F16.4°C 61.0°F16.1°C 98% Calm Calm -- 29.93 in1013.5 mb 0.04 in1.0 mm 0.00 in0.0 mm 0.40 in10.2 mm
08:30 PM 61.5°F16.4°C 61.0°F16.1°C 98% Calm Calm -- 29.93 in1013.5 mb 0.02 in0.5 mm 0.00 in0.0 mm 0.40 in10.2 mm
08:40 PM 61.5°F16.4°C 61.0°F16.1°C 98% Calm Calm 3.8 mph6.1 kmh 29.93 in1013.5 mb 0.04 in1.0 mm 0.12 in3.0 mm 0.41 in10.4 mm
08:50 PM 61.5°F16.4°C 61.0°F16.1°C 98% Calm Calm -- 29.93 in1013.5 mb 0.04 in1.0 mm 0.00 in0.0 mm 0.41 in10.4 mm
09:00 PM 61.5°F16.4°C 61.0°F16.1°C 98% Calm Calm -- 29.93 in1013.5 mb 0.02 in0.5 mm 0.00 in0.0 mm 0.41 in10.4 mm
09:10 PM 61.5°F16.4°C 61.0°F16.1°C 98% Calm Calm -- 29.93 in1013.5 mb 0.02 in0.5 mm 0.00 in0.0 mm 0.43 in10.9 mm
09:20 PM 61.7°F16.5°C 61.1°F16.2°C 98% Calm Calm -- 29.93 in1013.5 mb 0.02 in0.5 mm 0.00 in0.0 mm 0.43 in10.9 mm
09:30 PM 61.7°F16.5°C 61.1°F16.2°C 98% Calm Calm -- 29.93 in1013.5 mb 0.02 in0.5 mm 0.00 in0.0 mm 0.43 in10.9 mm
09:40 PM 61.7°F16.5°C 61.1°F16.2°C 98% Calm Calm -- 29.91 in1012.9 mb 0.01 in0.3 mm 0.00 in0.0 mm 0.43 in10.9 mm
09:50 PM 61.5°F16.4°C 61.0°F16.1°C 98% Calm Calm -- 29.91 in1012.9 mb 0.01 in0.3 mm 0.00 in0.0 mm 0.43 in10.9 mm
10:00 PM 61.7°F16.5°C 61.1°F16.2°C 98% Calm Calm -- 29.91 in1012.9 mb 0.01 in0.3 mm 0.00 in0.0 mm 0.44 in11.2 mm
10:10 PM 61.7°F16.5°C 61.1°F16.2°C 98% Calm Calm -- 29.90 in1012.5 mb 0.02 in0.5 mm 0.06 in1.5 mm 0.45 in11.4 mm
10:20 PM 61.7°F16.5°C 61.1°F16.2°C 98% Calm Calm -- 29.90 in1012.5 mb 0.02 in0.5 mm 0.00 in0.0 mm 0.45 in11.4 mm
10:30 PM 61.7°F16.5°C 61.1°F16.2°C 98% Calm Calm -- 29.90 in1012.5 mb 0.02 in0.5 mm 0.00 in0.0 mm 0.45 in11.4 mm
10:40 PM 61.7°F16.5°C 61.1°F16.2°C 98% Calm Calm -- 29.90 in1012.5 mb 0.05 in1.3 mm 0.18 in4.6 mm 0.47 in11.9 mm
10:50 PM 61.7°F16.5°C 61.1°F16.2°C 98% Calm Calm -- 29.89 in1012.2 mb 0.05 in1.3 mm 0.00 in0.0 mm 0.47 in11.9 mm
11:00 PM 61.7°F16.5°C 61.1°F16.2°C 98% Calm Calm -- 29.89 in1012.2 mb 0.05 in1.3 mm 0.00 in0.0 mm 0.23 in5.8 mm
11:10 PM 61.5°F16.4°C 61.0°F16.1°C 98% Calm Calm 6.0 mph9.7 kmh 29.89 in1012.2 mb 0.05 in1.3 mm 0.00 in0.0 mm 0.01 in0.3 mm
11:20 PM 61.3°F16.3°C 60.8°F16.0°C 98% Calm Calm 1.6 mph2.6 kmh 29.88 in1011.9 mb 0.05 in1.3 mm 0.00 in0.0 mm 0.01 in0.3 mm
11:30 PM 61.3°F16.3°C 60.8°F16.0°C 98% Calm Calm -- 29.88 in1011.9 mb 0.05 in1.3 mm 0.00 in0.0 mm 0.01 in0.3 mm
11:40 PM 61.3°F16.3°C 60.8°F16.0°C 98% Calm Calm -- 29.88 in1011.9 mb 0.02 in0.5 mm 0.00 in0.0 mm 0.01 in0.3 mm
11:50 PM 61.3°F16.3°C 60.8°F16.0°C 98% Calm Calm -- 29.87 in1011.5 mb 0.02 in0.5 mm 0.00 in0.0 mm 0.01 in0.3 mm